Donaldsonville, LA (70346)

1:20 PM CDT on May 06, 2015 (GMT -0500)
Geismar - Air Liquide | | Change Station
CLOSE
Current Station
Personal Weather Station
Location: Geismar, LA
Elevation: 0 ft
Nearby Weather Stations

Elev 0 ft 30.21 °N, 90.99 °W | Updated 1 minute ago

Partly Cloudy
Partly Cloudy
81.9 °F
Feels Like 84 °F
N
3.0
Wind Variable Wind from ENE
Gusts 10.0 mph

Today
High -- | Low -- °F
--% Chance of Precip.
Yesterday
High -- | Low -- °F
Precip. -- in
6:16 AM 7:44 PM
Waning Gibbous, 93% visible
Pressure 30.05 in
Visibility 10.0 miles
Clouds Scattered Clouds 4000 ft
Scattered Clouds 4800 ft
Overcast 6000 ft
Heat Index 84 °F
Dew Point 66 °F
Humidity 58%
Rainfall 0.00 in
Snow Depth Not available.
UV 4 out of 12
Pollen 6.40 out of 12
Air Quality Not available.
Flu Activity Sporadic
METAR KL38 061755Z AUTO 11008KT 10SM SCT040 SCT048 OVC060 28/17 A3005 RMK AO2 T02750170 10275 20171

More Conditions Fewer Conditions

Pressure 30.05 in
Visibility 10.0 miles
Clouds Scattered Clouds 4000 ft
Scattered Clouds 4800 ft
Overcast 6000 ft
Heat Index 84 °F
Dew Point 66 °F
Humidity 58%
Rainfall 0.00 in
Snow Depth Not available.
UV 4 out of 12
Pollen 6.40 out of 12
Air Quality Not available.
Flu Activity Sporadic
METAR KL38 061755Z AUTO 11008KT 10SM SCT040 SCT048 OVC060 28/17 A3005 RMK AO2 T02750170 10275 20171

More Conditions Fewer Conditions

10-Day Weather Forecast

Almanac

Astronomy

May. 06, 2015 Rise Set
Actual Time
Civil Twilight
Nautical Twilight
Astronomical Twilight
Moon
Length of Visible Light
Length of Day
Tomorrow will be .
, % of the Moon is Illuminated

Today's Extremes

State Highs State Lows

Community

WunderPhotos

Upload Photos

1,818,968 photos uploaded!

WunderBlogs® & News

Nearby

Air Quality

  Air Quality AQ Index Pollutant
Not available.

Snow Depth

Station Depth Elevation

Earthquake Activity

City Distance Mag. Time & Date
Minimum magnitude displayed is 2.5.

Coastal Water Temperatures

Place Temperature

Stations

Nearby Weather Stations

Station Location Temp. Windchill Dew Point Humidity Wind Precip. Elev Updated Type